Time;durP1;ratioP1;P1;durP2;ratioP2;P2;SDS_P1;SDS_P2;PMS_P1;PMS_P2;Temp;Humidity;BMP_temperature;BMP_pressure;BME280_temperature;BME280_humidity;BME280_pressure;Samples;Min_cycle;Max_cycle;Signal;HPM_P1;HPM_P2
2023/07/09 00:02:29;;;;;;;;;;;;;;;20.44;57.31;99287.91;135772;1277;22504;-63
2023/07/09 00:05:32;;;;;;;24.80;8.90;;;;;;;20.41;57.68;99289.40;135784;1277;24341;-63
2023/07/09 00:08:34;;;;;;;23.40;9.70;;;;;;;20.11;58.61;99289.76;135739;1277;22550;-62
2023/07/09 00:11:36;;;;;;;27.70;11.30;;;;;;;20.41;57.11;99285.11;135790;1277;22631;-63
2023/07/09 00:14:39;;;;;;;22.90;10.10;;;;;;;19.89;59.39;99289.64;135799;1277;24380;-63
2023/07/09 00:17:41;;;;;;;21.90;9.10;;;;;;;20.07;59.04;99284.45;135785;1277;22524;-63
2023/07/09 00:20:44;;;;;;;;;;;;;;;20.04;59.08;99285.52;135805;1277;22524;-63
2023/07/09 00:23:48;;;;;;;23.40;8.80;;;;;;;20.15;58.73;99281.00;135723;1277;22484;-63
2023/07/09 00:26:51;;;;;;;24.00;9.10;;;;;;;20.14;58.64;99280.25;135796;1259;22530;-64
2023/07/09 00:29:53;;;;;;;23.80;9.60;;;;;;;20.06;58.88;99282.00;135816;1277;22546;-64
2023/07/09 00:32:56;;;;;;;;;;;;;;;19.97;59.48;99282.33;135830;1277;22603;-63
2023/07/09 00:35:58;;;;;;;;;;;;;;;20.09;59.02;99285.42;135806;1277;22530;-63
2023/07/09 00:39:04;;;;;;;22.30;9.50;;;;;;;20.14;58.72;99286.77;135789;1259;22520;-63
2023/07/09 00:42:07;;;;;;;23.70;10.30;;;;;;;19.93;58.50;99288.54;135789;1277;22548;-63
2023/07/09 00:45:09;;;;;;;23.50;9.30;;;;;;;19.54;59.99;99289.43;135787;1277;22527;-62
2023/07/09 00:48:12;;;;;;;21.60;9.00;;;;;;;19.50;60.12;99288.00;135780;1277;22544;-65
2023/07/09 00:51:15;;;;;;;21.90;9.20;;;;;;;19.54;60.14;99283.74;135787;1277;22520;-65
2023/07/09 00:54:18;;;;;;;21.50;8.30;;;;;;;19.44;61.02;99283.17;135734;1277;22552;-63
2023/07/09 00:57:21;;;;;;;22.80;9.40;;;;;;;19.42;60.68;99286.08;135731;1277;22660;-64
2023/07/09 01:00:24;;;;;;;22.40;9.30;;;;;;;19.21;61.39;99280.83;135681;1277;25399;-64
2023/07/09 01:03:29;;;;;;;21.70;9.20;;;;;;;19.31;61.13;99277.15;135705;1277;22551;-63
2023/07/09 01:06:32;;;;;;;23.70;10.80;;;;;;;19.62;59.91;99275.73;135705;1259;22555;-63
2023/07/09 01:09:40;;;;;;;23.60;10.00;;;;;;;19.73;59.22;99274.54;135735;1277;22539;-63
2023/07/09 01:12:43;;;;;;;23.20;9.20;;;;;;;18.81;62.89;99276.66;135781;1277;23905;-63
2023/07/09 01:15:46;;;;;;;;;;;;;;;17.93;67.20;99280.53;135824;1260;25407;-64
2023/07/09 01:18:48;;;;;;;22.40;9.10;;;;;;;17.90;67.89;99279.01;135819;1259;22673;-63
2023/07/09 01:21:52;;;;;;;;;;;;;;;18.01;67.77;99277.91;135818;1259;22776;-64
2023/07/09 01:24:54;;;;;;;24.40;9.60;;;;;;;17.86;68.98;99280.41;135810;1277;22520;-64
2023/07/09 01:27:57;;;;;;;;;;;;;;;17.61;70.10;99281.06;135824;1277;22524;-63
2023/07/09 01:31:00;;;;;;;28.70;10.20;;;;;;;17.55;70.80;99281.17;135801;1277;22539;-63
2023/07/09 01:34:02;;;;;;;21.40;10.10;;;;;;;17.43;70.98;99282.70;135780;1277;24226;-63
2023/07/09 01:37:05;;;;;;;;;;;;;;;17.35;71.85;99281.20;135813;1277;22507;-63
2023/07/09 01:40:09;;;;;;;22.50;9.40;;;;;;;17.18;72.63;99277.18;135794;1277;22646;-62
2023/07/09 01:43:11;;;;;;;20.30;8.40;;;;;;;17.17;72.80;99274.91;135809;1277;22647;-63
2023/07/09 01:46:14;;;;;;;;;;;;;;;17.33;71.88;99276.30;135803;1259;23154;-64
2023/07/09 01:49:16;;;;;;;22.00;8.80;;;;;;;17.69;69.09;99279.16;135802;1277;22540;-63
2023/07/09 01:52:19;;;;;;;22.30;8.90;;;;;;;17.76;67.93;99283.49;135723;1277;22523;-61
2023/07/09 01:55:21;;;;;;;;;;;;;;;18.12;66.58;99288.01;135836;1277;22522;-62
2023/07/09 01:58:24;;;;;;;22.10;10.40;;;;;;;18.09;66.42;99287.86;135833;1277;25468;-62
2023/07/09 02:01:27;;;;;;;23.10;9.80;;;;;;;18.06;66.26;99288.14;135783;1277;22524;-61
2023/07/09 02:04:31;;;;;;;22.80;8.90;;;;;;;18.18;65.43;99288.75;135788;1277;22531;-62
2023/07/09 02:07:34;;;;;;;23.80;9.30;;;;;;;18.25;64.81;99292.02;135778;1277;22527;-62
2023/07/09 02:10:36;;;;;;;;;;;;;;;18.23;64.38;99293.64;135816;1277;22510;-62
2023/07/09 02:13:38;;;;;;;24.00;9.20;;;;;;;18.09;65.05;99294.38;135813;1277;22657;-62
2023/07/09 02:16:41;;;;;;;;;;;;;;;18.21;64.34;99296.96;135789;1259;22615;-62
2023/07/09 02:19:44;;;;;;;21.00;9.10;;;;;;;18.52;63.07;99297.52;135798;1277;22523;-62
2023/07/09 02:22:46;;;;;;;;;;;;;;;19.00;60.93;99290.48;135803;1277;23884;-61
2023/07/09 02:25:49;;;;;;;21.90;10.00;;;;;;;18.66;62.29;99290.25;135710;1277;25322;-64
2023/07/09 02:28:51;;;;;;;;;;;;;;;18.26;63.99;99295.60;135809;1277;22490;-62
2023/07/09 02:31:54;;;;;;;22.90;9.10;;;;;;;18.58;62.89;99298.27;135780;1277;22550;-62
2023/07/09 02:34:56;;;;;;;22.40;8.80;;;;;;;18.27;63.92;99302.09;135808;1277;22552;-62
2023/07/09 02:37:58;;;;;;;;;;;;;;;18.45;63.23;99299.90;135821;1259;22516;-61
2023/07/09 02:41:01;;;;;;;21.70;9.20;;;;;;;18.49;62.79;99300.05;135818;1277;22701;-62
2023/07/09 02:44:03;;;;;;;;;;;;;;;18.49;62.52;99301.14;135814;1272;24321;-62
2023/07/09 02:47:06;;;;;;;23.30;9.40;;;;;;;18.98;60.64;99301.66;135761;1277;22519;-62
2023/07/09 02:50:08;;;;;;;21.20;8.90;;;;;;;19.21;59.45;99302.29;135659;1273;23017;-62
2023/07/09 02:53:10;;;;;;;;;;;;;;;18.81;60.69;99300.98;135734;1264;22521;-62
2023/07/09 02:56:13;;;;;;;26.20;11.10;;;;;;;18.47;62.11;99303.92;135708;1278;22530;-61
2023/07/09 02:59:15;;;;;;;;;;;;;;;18.31;62.99;99303.89;135704;1278;22526;-61
2023/07/09 03:02:18;;;;;;;22.80;9.70;;;;;;;18.59;62.30;99303.08;135742;1278;22530;-61
2023/07/09 03:05:20;;;;;;;;;;;;;;;18.74;62.06;99294.70;135699;1264;22514;-62
2023/07/09 03:08:22;;;;;;;23.80;8.40;;;;;;;18.77;62.23;99297.30;135651;1278;25471;-62
2023/07/09 03:11:25;;;;;;;;;;;;;;;18.79;61.67;99301.02;135677;1259;22513;-63
2023/07/09 03:14:27;;;;;;;22.50;9.90;;;;;;;18.82;62.07;99300.95;135683;1278;22538;-62
2023/07/09 03:17:29;;;;;;;;;;;;;;;18.58;63.35;99305.45;135706;1278;22570;-61
2023/07/09 03:20:32;;;;;;;23.80;9.60;;;;;;;18.62;63.92;99307.58;135643;1260;22534;-61
2023/07/09 03:23:34;;;;;;;21.60;9.40;;;;;;;18.87;63.00;99305.81;135667;1259;22527;-61
2023/07/09 03:26:37;;;;;;;;;;;;;;;18.89;63.19;99305.45;135658;1270;22521;-62
2023/07/09 03:29:39;;;;;;;21.10;8.60;;;;;;;18.69;64.51;99302.89;135666;1273;22549;-61
2023/07/09 03:32:42;;;;;;;;;;;;;;;18.80;64.55;99302.00;135690;1266;22516;-62
2023/07/09 03:35:44;;;;;;;23.30;8.90;;;;;;;18.96;64.09;99309.44;135707;1278;22576;-62
2023/07/09 03:38:47;;;;;;;21.80;8.90;;;;;;;19.23;63.78;99306.20;135656;1278;22546;-62
2023/07/09 03:41:49;;;;;;;;;;;;;;;19.55;63.75;99302.42;135706;1278;23852;-62
2023/07/09 03:44:52;;;;;;;20.40;8.90;;;;;;;19.73;63.67;99304.16;135669;1278;22537;-62
2023/07/09 03:47:54;;;;;;;;;;;;;;;20.04;62.32;99304.73;135679;1278;22508;-62
2023/07/09 03:50:57;;;;;;;23.70;9.40;;;;;;;20.19;62.52;99305.84;135578;1278;22542;-62
2023/07/09 03:53:59;;;;;;;20.20;8.80;;;;;;;20.46;62.03;99301.33;135633;1278;22475;-63
2023/07/09 03:57:01;;;;;;;;;;;;;;;20.51;62.63;99301.03;135683;1278;22509;-63
2023/07/09 04:00:04;;;;;;;;;;;;;;;20.77;61.70;99300.27;135707;1260;22617;-63
2023/07/09 04:03:08;;;;;;;20.60;8.60;;;;;;;20.73;62.66;99299.70;135686;1278;22520;-63
2023/07/09 04:06:10;;;;;;;24.00;8.90;;;;;;;21.22;61.05;99302.80;135592;1257;22507;-63
2023/07/09 04:09:13;;;;;;;21.30;9.10;;;;;;;21.74;58.41;99303.48;135699;1278;22542;-63
2023/07/09 04:12:15;;;;;;;24.70;9.10;;;;;;;22.06;57.88;99303.61;135667;1278;22557;-63
2023/07/09 04:15:18;;;;;;;21.40;8.90;;;;;;;22.30;58.44;99308.45;135615;1278;22550;-64
2023/07/09 04:18:20;;;;;;;23.10;8.80;;;;;;;22.66;57.83;99315.80;135646;1278;22575;-63
2023/07/09 04:21:22;;;;;;;21.40;9.30;;;;;;;22.88;57.98;99313.22;135699;1278;25237;-62
2023/07/09 04:24:27;;;;;;;21.60;9.10;;;;;;;23.16;57.36;99307.67;135620;1278;22526;-62
2023/07/09 04:27:29;;;;;;;21.40;8.50;;;;;;;23.18;57.21;99307.06;135606;1259;22546;-63
2023/07/09 04:30:31;;;;;;;21.40;8.50;;;;;;;23.29;55.55;99308.94;135617;1278;22543;-63
2023/07/09 04:33:35;;;;;;;23.70;9.10;;;;;;;23.53;54.98;99310.52;135662;1259;22557;-64
2023/07/09 04:36:38;;;;;;;22.00;7.80;;;;;;;23.72;55.17;99317.18;135654;1278;22553;-64
2023/07/09 04:39:40;;;;;;;22.70;9.00;;;;;;;24.05;54.78;99315.38;135630;1278;22672;-64
2023/07/09 04:42:43;;;;;;;19.90;8.30;;;;;;;24.30;54.41;99315.05;135652;1278;25421;-64
2023/07/09 04:45:45;;;;;;;22.00;8.30;;;;;;;24.27;54.80;99314.95;135644;1259;22536;-64
2023/07/09 04:48:48;;;;;;;21.50;8.70;;;;;;;24.58;53.56;99309.05;135591;1278;25441;-63
2023/07/09 04:51:50;;;;;;;22.00;8.20;;;;;;;24.74;53.55;99311.44;135671;1278;25444;-62
2023/07/09 04:54:53;;;;;;;22.10;8.60;;;;;;;24.97;52.82;99305.80;135583;1278;22553;-64
2023/07/09 04:57:55;;;;;;;24.60;8.70;;;;;;;25.00;53.01;99311.33;135585;1278;22609;-63
2023/07/09 05:00:57;;;;;;;22.60;7.90;;;;;;;25.19;52.28;99307.40;135420;1258;22551;-64
2023/07/09 05:04:00;;;;;;;27.40;8.10;;;;;;;25.24;51.67;99310.38;135624;1259;24196;-63
2023/07/09 05:07:02;;;;;;;21.30;7.60;;;;;;;25.34;51.91;99313.36;135616;1259;22533;-63
2023/07/09 05:10:05;;;;;;;20.30;7.90;;;;;;;25.45;51.04;99318.58;135650;1259;22643;-65
2023/07/09 05:13:07;;;;;;;25.90;8.10;;;;;;;25.74;51.12;99323.08;135630;1260;22521;-65
2023/07/09 05:16:09;;;;;;;21.00;7.90;;;;;;;26.22;50.01;99324.85;135582;1264;23057;-64
2023/07/09 05:19:12;;;;;;;22.50;7.50;;;;;;;26.18;49.59;99323.02;135579;1259;22527;-65
2023/07/09 05:22:14;;;;;;;20.40;7.30;;;;;;;26.48;48.08;99330.46;135625;1278;24252;-65
2023/07/09 05:25:17;;;;;;;20.60;7.10;;;;;;;27.01;45.81;99326.48;135632;1278;22636;-66
2023/07/09 05:28:19;;;;;;;19.30;6.90;;;;;;;27.27;43.90;99325.16;135645;1277;22539;-65
2023/07/09 05:31:21;;;;;;;22.70;8.00;;;;;;;27.50;43.10;99319.78;135786;1277;22546;-65
2023/07/09 05:34:24;;;;;;;22.40;7.00;;;;;;;27.61;42.65;99318.96;135720;1277;22523;-65
2023/07/09 05:37:26;;;;;;;21.90;7.00;;;;;;;27.53;41.82;99328.25;135764;1277;22543;-68
2023/07/09 05:40:29;;;;;;;21.80;7.40;;;;;;;27.74;41.26;99329.91;135809;1259;22627;-67
2023/07/09 05:43:31;;;;;;;19.90;7.00;;;;;;;28.02;40.52;99328.47;135771;1264;22543;-66
2023/07/09 05:46:35;;;;;;;22.90;7.30;;;;;;;27.78;40.92;99333.14;135783;1277;22639;-64
2023/07/09 05:49:38;;;;;;;19.30;6.80;;;;;;;28.19;40.88;99330.68;135617;1262;24206;-65
2023/07/09 05:52:40;;;;;;;24.40;7.40;;;;;;;28.52;40.25;99333.41;135639;1278;22565;-64
2023/07/09 05:55:43;;;;;;;19.90;7.20;;;;;;;28.73;40.01;99330.76;135456;1278;22632;-64
2023/07/09 05:58:45;;;;;;;20.60;6.60;;;;;;;29.10;39.95;99335.11;135405;1278;22543;-64
2023/07/09 06:01:47;;;;;;;18.50;7.10;;;;;;;29.41;38.78;99333.98;135354;1278;22535;-65
2023/07/09 06:04:50;;;;;;;21.00;7.70;;;;;;;29.65;37.34;99336.33;135328;1278;22485;-66
2023/07/09 06:07:53;;;;;;;21.50;7.30;;;;;;;29.97;37.62;99339.66;136263;1278;22520;-65
2023/07/09 06:10:56;;;;;;;20.00;7.20;;;;;;;30.20;36.83;99339.90;135573;1259;22633;-65
2023/07/09 06:13:59;;;;;;;22.20;7.90;;;;;;;30.76;36.82;99339.25;135672;1278;25291;-65
2023/07/09 06:17:01;;;;;;;22.60;7.10;;;;;;;30.97;36.92;99341.90;135615;1278;24087;-64
2023/07/09 06:20:04;;;;;;;24.40;7.90;;;;;;;30.85;36.67;99343.52;135630;1278;22579;-65
2023/07/09 06:23:07;;;;;;;19.90;6.90;;;;;;;31.15;36.33;99337.96;135639;1275;22523;-65
2023/07/09 06:26:09;;;;;;;19.90;7.10;;;;;;;31.13;36.11;99339.73;135623;1266;22554;-65
2023/07/09 06:29:11;;;;;;;22.40;7.40;;;;;;;31.39;35.55;99336.48;135636;1278;22600;-65
2023/07/09 06:32:14;;;;;;;20.90;7.50;;;;;;;31.33;35.60;99338.38;135649;1278;22779;-64
2023/07/09 06:35:16;;;;;;;20.80;7.50;;;;;;;31.66;34.78;99339.50;135637;1278;22565;-65
2023/07/09 06:38:19;;;;;;;19.00;6.80;;;;;;;31.48;34.58;99343.69;135652;1260;22548;-66
2023/07/09 06:41:21;;;;;;;18.20;6.80;;;;;;;32.05;33.99;99338.72;135676;1278;22675;-65
2023/07/09 06:44:25;;;;;;;19.40;7.30;;;;;;;32.07;33.56;99337.11;135617;1278;22539;-66
2023/07/09 06:47:27;;;;;;;20.80;7.00;;;;;;;32.54;33.34;99332.89;135644;1278;22636;-66
2023/07/09 06:50:30;;;;;;;18.90;7.50;;;;;;;32.01;34.10;99338.16;135626;1278;22526;-67
2023/07/09 06:53:33;;;;;;;20.40;7.50;;;;;;;32.26;33.96;99337.95;135610;1259;22553;-66
2023/07/09 06:56:35;;;;;;;22.00;7.20;;;;;;;32.58;33.73;99334.53;135632;1278;22635;-67
2023/07/09 06:59:38;;;;;;;22.20;7.60;;;;;;;32.07;34.46;99338.07;135603;1278;22562;-66
2023/07/09 07:02:40;;;;;;;20.50;7.10;;;;;;;31.95;34.97;99335.61;135638;1278;22554;-66
2023/07/09 07:05:42;;;;;;;21.30;7.00;;;;;;;32.56;33.76;99336.34;135628;1259;22549;-66
2023/07/09 07:08:45;;;;;;;20.10;7.10;;;;;;;32.78;33.49;99337.80;135557;1278;22531;-66
2023/07/09 07:11:47;;;;;;;19.40;6.60;;;;;;;32.62;33.92;99338.09;135597;1278;25471;-67
2023/07/09 07:14:50;;;;;;;20.00;6.40;;;;;;;32.85;33.19;99341.55;135660;1278;25590;-66
2023/07/09 07:17:52;;;;;;;19.10;6.60;;;;;;;33.04;33.16;99342.70;135615;1278;22543;-66
2023/07/09 07:20:54;;;;;;;18.90;6.90;;;;;;;33.62;32.91;99338.85;135596;1278;22636;-67
2023/07/09 07:23:57;;;;;;;19.50;6.70;;;;;;;33.92;31.64;99340.28;135590;1278;22556;-67
2023/07/09 07:26:59;;;;;;;19.70;6.40;;;;;;;33.56;31.05;99339.39;135576;1264;22545;-67
2023/07/09 07:30:02;;;;;;;18.70;6.70;;;;;;;33.74;31.36;99340.10;135660;1278;22535;-66
2023/07/09 07:33:04;;;;;;;16.90;6.40;;;;;;;33.50;32.22;99341.83;135585;1259;22624;-67
2023/07/09 07:36:07;;;;;;;21.60;6.60;;;;;;;33.95;31.62;99335.40;135628;1278;22534;-66
2023/07/09 07:39:09;;;;;;;17.10;6.00;;;;;;;34.18;31.24;99335.86;135629;1264;22578;-67
2023/07/09 07:42:12;;;;;;;21.10;5.90;;;;;;;34.45;30.74;99342.98;135669;1278;23253;-66
2023/07/09 07:45:14;;;;;;;18.90;6.50;;;;;;;34.66;30.31;99340.91;135632;1259;23669;-66
2023/07/09 07:48:16;;;;;;;19.50;6.00;;;;;;;34.76;30.13;99333.48;135601;1278;22523;-66
2023/07/09 07:51:21;;;;;;;17.40;5.40;;;;;;;34.58;29.78;99335.15;135619;1278;22539;-67
2023/07/09 07:54:24;;;;;;;17.10;5.30;;;;;;;34.40;29.60;99338.64;135635;1278;22553;-67
2023/07/09 07:57:27;;;;;;;16.60;5.80;;;;;;;34.55;29.44;99342.21;135669;1275;22677;-66
2023/07/09 08:00:29;;;;;;;17.00;5.80;;;;;;;34.80;29.81;99338.30;135638;1277;195210;-67
2023/07/09 08:03:31;;;;;;;18.20;5.50;;;;;;;35.12;29.28;99338.23;135737;1273;22522;-66
2023/07/09 08:06:34;;;;;;;16.70;5.40;;;;;;;35.49;28.80;99340.83;135774;1277;22531;-66
2023/07/09 08:09:36;;;;;;;16.30;5.50;;;;;;;35.68;28.54;99343.17;135722;1277;22517;-68
2023/07/09 08:12:39;;;;;;;16.10;5.30;;;;;;;36.09;28.23;99339.41;135759;1277;22546;-66
2023/07/09 08:15:42;;;;;;;15.70;5.60;;;;;;;36.47;27.61;99333.77;135724;1277;22566;-67
2023/07/09 08:18:44;;;;;;;15.50;5.20;;;;;;;36.90;28.10;99331.63;135815;1265;22530;-67
2023/07/09 08:21:47;;;;;;;15.00;5.20;;;;;;;37.07;27.12;99331.49;135781;1277;22530;-67
2023/07/09 08:24:49;;;;;;;16.50;4.90;;;;;;;37.18;27.33;99324.45;135775;1277;22517;-67
2023/07/09 08:27:52;;;;;;;14.70;5.00;;;;;;;37.09;27.71;99325.93;135811;1264;22536;-67
2023/07/09 08:30:54;;;;;;;15.60;5.40;;;;;;;36.65;26.28;99331.83;135741;1277;22524;-67
2023/07/09 08:33:57;;;;;;;14.90;5.40;;;;;;;36.41;26.60;99330.05;135760;1278;22530;-67
2023/07/09 08:36:59;;;;;;;17.50;4.50;;;;;;;36.42;27.15;99328.00;135744;1277;22672;-67
2023/07/09 08:40:01;;;;;;;16.00;4.90;;;;;;;36.77;26.35;99327.77;135754;1259;22534;-67
2023/07/09 08:43:04;;;;;;;15.80;4.80;;;;;;;37.10;25.72;99325.34;135790;1277;22541;-67
2023/07/09 08:46:06;;;;;;;13.10;4.90;;;;;;;37.08;26.02;99324.18;135814;1260;22640;-67
2023/07/09 08:49:09;;;;;;;15.10;5.00;;;;;;;36.99;25.49;99325.05;135789;1278;22520;-67
2023/07/09 08:52:11;;;;;;;14.10;4.60;;;;;;;36.93;25.46;99326.34;135753;1277;24415;-67
2023/07/09 08:55:14;;;;;;;13.90;4.80;;;;;;;37.15;25.43;99322.67;135692;1278;22534;-67
2023/07/09 08:58:16;;;;;;;13.20;4.10;;;;;;;37.54;24.86;99316.03;135790;1277;22539;-67
2023/07/09 09:01:18;;;;;;;16.30;5.10;;;;;;;37.65;25.55;99315.36;135799;1277;22535;-66
2023/07/09 09:04:21;;;;;;;12.30;4.30;;;;;;;37.63;24.98;99315.13;135794;1278;25331;-68
2023/07/09 09:07:23;;;;;;;16.30;4.80;;;;;;;37.73;25.01;99312.60;135794;1277;25587;-67
2023/07/09 09:10:26;;;;;;;11.80;4.30;;;;;;;38.07;24.90;99309.80;135769;1278;22543;-67
2023/07/09 09:13:28;;;;;;;15.30;4.40;;;;;;;37.96;24.50;99309.30;135787;1278;22538;-67
2023/07/09 09:16:30;;;;;;;11.30;4.30;;;;;;;37.89;23.86;99308.41;135767;1277;24222;-67
2023/07/09 09:19:36;;;;;;;13.40;3.90;;;;;;;37.81;24.29;99312.27;135734;1267;24225;-67
2023/07/09 09:22:39;;;;;;;14.50;4.10;;;;;;;37.97;23.82;99308.67;135791;1277;22565;-67
2023/07/09 09:25:41;;;;;;;12.90;4.50;;;;;;;37.61;23.41;99315.56;135771;1277;22564;-66
2023/07/09 09:28:44;;;;;;;15.20;4.00;;;;;;;38.04;22.82;99310.98;135799;1264;22507;-67
2023/07/09 09:31:46;;;;;;;12.50;4.30;;;;;;;38.16;23.17;99312.23;135776;1276;22537;-67
2023/07/09 09:34:48;;;;;;;10.20;3.80;;;;;;;38.18;22.32;99314.59;135730;1278;22547;-67
2023/07/09 09:37:51;;;;;;;14.20;4.10;;;;;;;38.54;22.50;99308.41;135705;1278;22569;-68
2023/07/09 09:40:54;;;;;;;13.30;4.20;;;;;;;38.30;22.72;99310.41;135779;1277;22553;-67
2023/07/09 09:43:56;;;;;;;13.50;4.00;;;;;;;38.11;22.44;99314.48;135819;1268;22582;-67
2023/07/09 09:46:59;;;;;;;12.10;3.90;;;;;;;38.21;22.47;99312.37;135760;1269;22553;-67
2023/07/09 09:50:01;;;;;;;11.60;4.10;;;;;;;38.26;22.31;99316.67;135804;1277;22637;-67
2023/07/09 09:53:04;;;;;;;11.90;4.00;;;;;;;38.34;22.12;99311.03;135761;1277;22535;-67
2023/07/09 09:56:06;;;;;;;13.00;4.30;;;;;;;38.32;22.25;99316.89;135728;1277;22666;-67
2023/07/09 09:59:09;;;;;;;13.60;4.70;;;;;;;37.86;22.97;99315.17;135778;1268;22553;-67
2023/07/09 10:02:11;;;;;;;14.20;4.40;;;;;;;38.00;22.52;99314.23;135761;1277;22633;-67
2023/07/09 10:05:13;;;;;;;11.70;4.20;;;;;;;38.06;22.20;99319.32;135784;1277;22528;-67
2023/07/09 10:08:16;;;;;;;14.40;4.70;;;;;;;38.28;22.42;99314.98;135750;1277;24020;-67
2023/07/09 10:11:18;;;;;;;13.90;4.20;;;;;;;38.14;22.92;99309.18;135780;1277;22544;-67
2023/07/09 10:14:21;;;;;;;12.30;4.10;;;;;;;38.33;22.14;99303.46;135776;1278;22554;-67
2023/07/09 10:17:23;;;;;;;13.20;4.20;;;;;;;38.45;21.86;99312.15;135754;1277;22539;-67
2023/07/09 10:20:26;;;;;;;13.30;3.80;;;;;;;38.38;21.56;99315.27;135763;1268;23511;-68
2023/07/09 10:23:28;;;;;;;11.90;4.00;;;;;;;37.96;21.19;99316.06;135782;1277;22644;-68
2023/07/09 10:26:30;;;;;;;12.60;3.80;;;;;;;37.93;21.17;99314.04;135781;1277;22535;-66
2023/07/09 10:29:33;;;;;;;14.70;4.40;;;;;;;37.66;21.30;99313.02;135790;1277;22666;-67
2023/07/09 10:32:35;;;;;;;12.00;4.20;;;;;;;37.87;21.37;99310.05;135740;1268;22546;-67
2023/07/09 10:35:38;;;;;;;11.30;4.10;;;;;;;38.00;21.48;99310.96;135767;1278;22545;-67
2023/07/09 10:38:40;;;;;;;10.70;4.10;;;;;;;38.06;21.57;99309.79;135772;1278;22581;-66
2023/07/09 10:41:43;;;;;;;12.30;4.00;;;;;;;38.05;21.34;99311.27;135801;1278;23682;-66
2023/07/09 10:44:45;;;;;;;14.20;4.30;;;;;;;37.89;21.87;99306.44;135801;1254;22527;-67
2023/07/09 10:47:47;;;;;;;15.70;4.50;;;;;;;38.18;22.34;99305.52;135757;1278;22985;-67
2023/07/09 10:50:50;;;;;;;12.50;4.30;;;;;;;38.58;21.57;99307.13;135785;1268;22531;-66
2023/07/09 10:53:53;;;;;;;12.90;4.10;;;;;;;38.56;21.80;99310.94;135792;1277;23719;-66
2023/07/09 10:56:56;;;;;;;12.60;4.00;;;;;;;38.71;21.94;99308.23;135795;1278;22551;-66
2023/07/09 10:59:58;;;;;;;13.50;4.30;;;;;;;38.73;21.79;99310.70;135786;1260;22571;-66
2023/07/09 11:03:01;;;;;;;11.70;4.20;;;;;;;38.77;22.17;99304.75;135724;1277;25258;-67
2023/07/09 11:06:03;;;;;;;12.50;4.20;;;;;;;38.16;21.04;99316.70;135748;1277;22536;-67
2023/07/09 11:09:06;;;;;;;12.70;4.00;;;;;;;37.41;22.02;99317.36;135785;1278;25217;-66
2023/07/09 11:12:08;;;;;;;11.10;4.00;;;;;;;36.99;22.81;99314.02;135758;1277;22542;-66
2023/07/09 11:15:10;;;;;;;16.00;4.40;;;;;;;37.06;23.22;99311.48;135780;1278;22538;-66
2023/07/09 11:18:13;;;;;;;15.60;4.20;;;;;;;37.59;21.83;99309.41;135777;1277;22633;-66
2023/07/09 11:21:15;;;;;;;13.90;4.10;;;;;;;37.60;21.98;99316.92;135783;1278;22653;-66
2023/07/09 11:24:18;;;;;;;13.50;4.30;;;;;;;37.89;21.36;99310.98;135787;1277;24365;-66
2023/07/09 11:27:20;;;;;;;12.70;4.20;;;;;;;37.88;21.37;99318.70;135783;1278;22537;-66
2023/07/09 11:30:23;;;;;;;12.00;4.00;;;;;;;38.06;21.09;99306.02;135792;1277;22546;-66
2023/07/09 11:33:25;;;;;;;13.90;4.70;;;;;;;38.55;20.74;99312.30;135754;1277;22544;-66
2023/07/09 11:36:28;;;;;;;12.80;4.20;;;;;;;39.07;20.64;99300.96;135799;1278;22530;-66
2023/07/09 11:39:30;;;;;;;13.50;4.20;;;;;;;39.06;21.45;99292.63;135760;1277;22528;-66
2023/07/09 11:42:33;;;;;;;12.00;4.10;;;;;;;39.32;21.27;99291.48;135769;1277;25393;-66
2023/07/09 11:45:35;;;;;;;13.00;4.10;;;;;;;39.49;20.96;99292.16;135774;1267;24238;-66
2023/07/09 11:48:37;;;;;;;13.20;4.30;;;;;;;39.33;21.11;99299.15;135784;1261;22526;-66
2023/07/09 11:51:40;;;;;;;14.70;4.20;;;;;;;39.49;20.58;99292.77;135788;1275;22530;-66
2023/07/09 11:54:42;;;;;;;13.80;4.60;;;;;;;39.68;20.78;99282.83;135768;1278;22541;-66
2023/07/09 11:57:45;;;;;;;12.50;4.30;;;;;;;39.32;21.54;99288.80;135789;1277;22528;-66
2023/07/09 12:00:48;;;;;;;13.80;4.30;;;;;;;38.65;21.47;99288.34;135797;1277;22523;-66
2023/07/09 12:03:50;;;;;;;16.70;5.00;;;;;;;38.31;22.35;99282.73;135794;1277;22561;-67
2023/07/09 12:06:53;;;;;;;14.90;4.30;;;;;;;39.11;21.78;99289.30;135745;1260;22566;-66
2023/07/09 12:09:55;;;;;;;12.90;4.40;;;;;;;39.28;21.76;99285.55;135770;1278;22531;-66
2023/07/09 12:12:58;;;;;;;12.20;4.50;;;;;;;38.99;21.74;99278.34;135784;1260;22531;-67
2023/07/09 12:16:00;;;;;;;15.40;4.60;;;;;;;39.14;21.27;99270.11;135751;1278;22517;-67
2023/07/09 12:19:03;;;;;;;14.40;4.20;;;;;;;39.52;21.83;99266.27;135775;1277;22635;-67
2023/07/09 12:22:05;;;;;;;12.50;4.20;;;;;;;39.11;22.34;99271.94;135788;1278;24389;-67
2023/07/09 12:25:07;;;;;;;13.90;4.10;;;;;;;39.70;21.70;99278.30;135774;1277;22529;-67
2023/07/09 12:28:10;;;;;;;13.00;4.30;;;;;;;39.87;21.34;99267.54;135751;1254;22546;-67
2023/07/09 12:31:13;;;;;;;15.50;4.40;;;;;;;40.26;21.04;99260.55;135742;1278;22534;-67
2023/07/09 12:34:15;;;;;;;16.70;4.30;;;;;;;39.93;21.04;99274.66;135787;1277;22694;-67
2023/07/09 12:37:18;;;;;;;14.60;4.40;;;;;;;39.70;21.13;99260.84;135795;1277;22543;-68
2023/07/09 12:40:20;;;;;;;13.00;4.30;;;;;;;40.29;20.73;99255.16;135763;1277;22632;-67
2023/07/09 12:43:23;;;;;;;14.50;4.30;;;;;;;40.01;20.35;99260.09;135774;1277;24618;-67
2023/07/09 12:46:25;;;;;;;11.70;4.10;;;;;;;39.77;20.76;99255.63;135754;1261;24353;-67
2023/07/09 12:49:28;;;;;;;14.50;4.10;;;;;;;38.96;21.04;99269.27;135757;1277;22531;-66
2023/07/09 12:52:30;;;;;;;12.60;4.00;;;;;;;38.86;21.07;99261.30;135758;1276;22530;-67
2023/07/09 12:55:32;;;;;;;12.70;4.00;;;;;;;38.46;21.81;99250.29;135821;1278;22530;-67
2023/07/09 12:58:36;;;;;;;13.20;4.40;;;;;;;38.77;21.72;99255.02;135754;1277;22541;-67
2023/07/09 13:01:39;;;;;;;13.10;4.20;;;;;;;38.20;22.11;99261.98;135801;1278;22542;-67
2023/07/09 13:04:42;;;;;;;14.30;4.10;;;;;;;38.28;22.42;99249.16;135786;1277;24213;-67
2023/07/09 13:07:44;;;;;;;12.70;4.40;;;;;;;39.13;22.00;99246.17;135777;1277;22535;-67
2023/07/09 13:10:50;;;;;;;13.50;4.20;;;;;;;39.84;21.25;99246.55;135791;1260;22518;-67
2023/07/09 13:13:53;;;;;;;14.70;4.00;;;;;;;39.46;21.01;99250.56;135731;1278;22732;-64
2023/07/09 13:16:55;;;;;;;14.80;3.90;;;;;;;38.28;22.27;99244.00;135763;1277;22528;-66
2023/07/09 13:19:58;;;;;;;12.80;4.00;;;;;;;38.17;22.62;99247.75;135769;1277;22996;-67
2023/07/09 13:23:01;;;;;;;13.20;3.90;;;;;;;38.12;22.56;99242.50;135761;1260;22580;-67
2023/07/09 13:26:04;;;;;;;12.30;4.10;;;;;;;38.27;21.91;99237.55;135798;1267;25453;-67
2023/07/09 13:29:06;;;;;;;13.10;4.20;;;;;;;38.07;22.77;99239.55;135804;1277;22624;-67
2023/07/09 13:32:09;;;;;;;8.90;3.80;;;;;;;38.07;22.20;99244.60;135824;1277;22528;-67
2023/07/09 13:35:12;;;;;;;13.70;3.80;;;;;;;38.13;22.34;99240.30;135761;1277;22535;-66
2023/07/09 13:38:15;;;;;;;12.80;4.10;;;;;;;37.74;22.75;99240.31;135825;1277;25268;-67
2023/07/09 13:41:18;;;;;;;13.10;4.30;;;;;;;37.95;23.06;99239.86;135768;1277;22550;-67
2023/07/09 13:44:21;;;;;;;13.40;3.90;;;;;;;37.90;22.17;99238.89;135784;1277;22529;-67
2023/07/09 13:47:23;;;;;;;24.40;4.60;;;;;;;37.51;22.77;99240.13;135840;1277;22534;-67
2023/07/09 13:50:26;;;;;;;15.20;4.50;;;;;;;37.82;23.28;99235.61;135769;1277;24386;-66
2023/07/09 13:53:28;;;;;;;11.80;3.80;;;;;;;38.11;21.93;99240.95;135809;1261;22995;-66
2023/07/09 13:56:30;;;;;;;10.60;4.00;;;;;;;38.17;21.37;99237.86;135716;1277;22532;-66
2023/07/09 13:59:33;;;;;;;9.80;3.70;;;;;;;38.22;21.38;99235.81;135697;1274;22542;-67
2023/07/09 14:02:35;;;;;;;14.60;3.90;;;;;;;37.76;22.20;99229.65;135788;1277;22545;-67
2023/07/09 14:05:38;;;;;;;9.80;3.80;;;;;;;37.72;21.63;99225.23;135793;1277;25220;-67
2023/07/09 14:08:40;;;;;;;9.10;3.50;;;;;;;38.45;21.37;99223.27;135797;1277;22529;-66